createdAt,value
2022-12-04T00:01:14.366Z,59.28
2022-12-04T00:03:42.381Z,55.60
2022-12-04T00:06:12.553Z,45.95
2022-12-04T00:08:42.680Z,51.88
2022-12-04T00:11:12.042Z,53.08
2022-12-04T00:13:40.188Z,46.88
2022-12-04T00:16:09.226Z,48.65
2022-12-04T00:18:37.115Z,51.83
2022-12-04T00:21:06.214Z,49.13
2022-12-04T00:23:35.036Z,44.67
2022-12-04T00:26:05.758Z,50.38
2022-12-04T00:28:33.745Z,55.42
2022-12-04T00:31:01.619Z,52.83
2022-12-04T00:33:29.490Z,44.33
2022-12-04T00:36:00.476Z,47.97
2022-12-04T00:38:28.723Z,48.65
2022-12-04T00:40:56.870Z,55.40
2022-12-04T00:43:26.051Z,51.10
2022-12-04T00:45:53.998Z,38.95
2022-12-04T00:48:21.998Z,50.38
2022-12-04T00:50:50.049Z,48.63
2022-12-04T00:53:18.553Z,45.45
2022-12-04T00:55:46.592Z,43.45
2022-12-04T00:58:14.633Z,45.65
2022-12-04T01:00:44.088Z,46.08
2022-12-04T01:03:12.290Z,38.58
2022-12-04T01:05:41.310Z,39.53
2022-12-04T01:08:10.069Z,38.17
2022-12-04T01:10:39.355Z,44.90
2022-12-04T01:13:07.293Z,41.17
2022-12-04T01:15:35.209Z,29.17
2022-12-04T01:18:04.517Z,39.13
2022-12-04T01:20:33.109Z,40.13
2022-12-04T01:23:00.991Z,39.33
2022-12-04T01:25:28.861Z,41.58
2022-12-04T01:27:56.741Z,38.58
2022-12-04T01:30:24.660Z,27.77
2022-12-04T01:32:53.986Z,41.97
2022-12-04T01:35:23.200Z,31.30
2022-12-04T01:37:51.032Z,38.72
2022-12-04T01:40:18.892Z,34.38
2022-12-04T01:42:46.742Z,29.15
2022-12-04T01:45:39.573Z,36.35
2022-12-04T01:48:14.746Z,28.40
2022-12-04T01:50:45.378Z,32.28
2022-12-04T01:53:13.862Z,34.40
2022-12-04T01:55:41.942Z,37.80
2022-12-04T01:58:10.424Z,38.45
2022-12-04T02:00:38.305Z,33.35
2022-12-04T02:03:06.230Z,40.05
2022-12-04T02:05:34.102Z,34.95
2022-12-04T02:08:05.833Z,34.63
2022-12-04T02:10:40.286Z,41.92
2022-12-04T02:13:13.352Z,32.53
2022-12-04T02:15:46.091Z,37.72
2022-12-04T02:18:20.066Z,30.80
2022-12-04T02:20:53.280Z,35.35
2022-12-04T02:23:32.100Z,37.58
2022-12-04T02:26:05.505Z,39.80
2022-12-04T02:28:38.415Z,36.45
2022-12-04T02:33:38.662Z,32.63
2022-12-04T02:36:08.924Z,32.03
2022-12-04T02:38:38.943Z,30.85
2022-12-04T02:41:11.926Z,37.55
2022-12-04T02:46:12.918Z,34.58
2022-12-04T02:48:43.044Z,34.58
2022-12-04T02:51:13.652Z,44.50
2022-12-04T02:53:43.954Z,37.95
2022-12-04T02:56:13.852Z,39.67
2022-12-04T02:58:46.421Z,29.92
2022-12-04T03:01:23.914Z,32.97
2022-12-04T03:03:54.377Z,34.60
2022-12-04T03:06:23.445Z,41.25
2022-12-04T03:08:57.123Z,36.95
2022-12-04T03:11:26.068Z,29.17
2022-12-04T03:13:58.369Z,38.33
2022-12-04T03:16:30.322Z,43.20
2022-12-04T03:19:01.159Z,40.03
2022-12-04T03:21:32.187Z,41.30
2022-12-04T03:24:04.415Z,40.30
2022-12-04T03:26:35.925Z,39.80
2022-12-04T03:29:09.181Z,43.38
2022-12-04T03:31:41.807Z,37.45
2022-12-04T03:34:11.145Z,42.05
2022-12-04T03:36:42.481Z,40.05
2022-12-04T03:39:20.093Z,38.45
2022-12-04T03:41:55.941Z,41.33
2022-12-04T03:44:27.775Z,40.20
2022-12-04T03:46:58.418Z,36.35
2022-12-04T03:49:30.508Z,40.50
2022-12-04T03:52:00.673Z,39.42
2022-12-04T03:54:31.473Z,39.63
2022-12-04T03:57:02.187Z,45.50
2022-12-04T03:59:36.463Z,46.03
2022-12-04T04:02:06.138Z,50.45
2022-12-04T04:04:36.797Z,46.20
2022-12-04T04:07:45.482Z,41.88
2022-12-04T04:10:15.844Z,39.60
2022-12-04T04:12:45.870Z,43.80
2022-12-04T04:15:34.478Z,39.97
2022-12-04T04:18:21.096Z,45.30
2022-12-04T04:21:08.944Z,50.25
2022-12-04T04:23:57.766Z,52.97
2022-12-04T04:26:27.906Z,45.20
2022-12-04T04:28:55.824Z,45.55
2022-12-04T04:31:30.833Z,42.58
2022-12-04T04:34:05.357Z,47.17
2022-12-04T04:36:38.710Z,40.25
2022-12-04T04:39:12.483Z,48.45
2022-12-04T04:41:43.470Z,43.25
2022-12-04T04:44:19.965Z,41.78
2022-12-04T04:46:52.738Z,41.90
2022-12-04T04:49:21.353Z,45.75
2022-12-04T04:51:49.488Z,37.00
2022-12-04T04:54:18.286Z,46.28
2022-12-04T04:56:48.124Z,31.30
2022-12-04T04:59:16.341Z,41.75
2022-12-04T05:01:46.554Z,46.80
2022-12-04T05:04:16.119Z,35.30
2022-12-04T05:06:44.067Z,53.05
2022-12-04T05:09:11.880Z,49.20
2022-12-04T05:11:39.836Z,48.67
2022-12-04T05:14:09.533Z,47.10
2022-12-04T05:16:37.652Z,48.75
2022-12-04T05:19:23.213Z,46.83
2022-12-04T05:21:52.467Z,43.00
2022-12-04T05:24:20.326Z,44.38
2022-12-04T05:26:48.322Z,43.45
2022-12-04T05:29:16.223Z,49.30
2022-12-04T05:31:44.279Z,51.38
2022-12-04T05:34:12.231Z,41.92
2022-12-04T05:36:40.119Z,42.85
2022-12-04T05:39:09.639Z,48.03
2022-12-04T05:41:37.473Z,43.50
2022-12-04T05:44:05.351Z,41.10
2022-12-04T05:46:33.225Z,48.90
2022-12-04T05:49:01.114Z,44.00
2022-12-04T05:51:29.035Z,46.17
2022-12-04T05:53:56.878Z,43.53
2022-12-04T05:56:37.639Z,49.28
2022-12-04T05:59:09.011Z,45.35
2022-12-04T06:01:37.700Z,48.72
2022-12-04T06:04:05.830Z,45.72
2022-12-04T06:06:33.920Z,48.67
2022-12-04T06:09:02.057Z,48.92
2022-12-04T06:11:33.025Z,48.78
2022-12-04T06:14:02.011Z,46.22
2022-12-04T06:16:31.418Z,55.13
2022-12-04T06:19:00.397Z,52.38
2022-12-04T06:21:30.656Z,48.00
2022-12-04T06:23:59.116Z,52.92
2022-12-04T06:26:27.545Z,52.08
2022-12-04T06:28:58.221Z,54.63
2022-12-04T06:31:27.393Z,52.60
2022-12-04T06:33:56.073Z,56.60
2022-12-04T06:36:24.731Z,47.20
2022-12-04T06:38:53.393Z,56.72
2022-12-04T06:41:22.102Z,50.38
2022-12-04T06:43:51.688Z,53.17
2022-12-04T06:46:22.706Z,50.63
2022-12-04T06:48:51.060Z,61.38
2022-12-04T06:51:21.011Z,51.53
2022-12-04T06:53:49.369Z,43.10
2022-12-04T06:56:18.928Z,50.53
2022-12-04T06:58:47.016Z,52.15
2022-12-04T07:01:17.643Z,48.45
2022-12-04T07:03:51.285Z,36.92
2022-12-04T07:06:21.592Z,53.40
2022-12-04T07:08:51.924Z,51.78
2022-12-04T07:11:21.353Z,51.40
2022-12-04T07:13:49.425Z,51.72
2022-12-04T07:16:19.728Z,52.42
2022-12-04T07:18:50.310Z,50.22
2022-12-04T07:21:20.711Z,52.50
2022-12-04T07:23:50.244Z,50.08
2022-12-04T07:26:18.305Z,54.10
2022-12-04T07:28:46.369Z,54.97
2022-12-04T07:31:16.115Z,47.33
2022-12-04T07:33:44.346Z,48.38
2022-12-04T07:36:15.988Z,54.05
2022-12-04T07:38:44.139Z,46.60
2022-12-04T07:41:13.262Z,52.70
2022-12-04T07:43:41.861Z,59.50
2022-12-04T07:46:11.875Z,52.55
2022-12-04T07:48:40.057Z,52.35
2022-12-04T07:51:10.041Z,54.13
2022-12-04T07:53:39.807Z,52.78
2022-12-04T07:56:08.884Z,50.75
2022-12-04T07:58:37.169Z,49.10
2022-12-04T08:01:09.700Z,53.33
2022-12-04T08:03:42.119Z,52.67
2022-12-04T08:06:13.251Z,53.70
2022-12-04T08:08:42.548Z,53.30
2022-12-04T08:11:12.118Z,52.90
2022-12-04T08:13:40.140Z,54.72
2022-12-04T08:16:09.840Z,49.75
2022-12-04T08:18:38.005Z,55.08
2022-12-04T08:21:07.155Z,51.50
2022-12-04T08:23:35.570Z,54.72
2022-12-04T08:26:06.164Z,57.38
2022-12-04T08:28:34.754Z,49.78
2022-12-04T08:31:06.709Z,53.50
2022-12-04T08:33:35.183Z,51.63
2022-12-04T08:36:03.444Z,55.38
2022-12-04T08:38:31.333Z,49.55
2022-12-04T08:41:01.260Z,47.15
2022-12-04T08:43:30.983Z,50.85
2022-12-04T08:45:59.660Z,52.90
2022-12-04T08:48:28.050Z,46.58
2022-12-04T08:50:56.644Z,48.03
2022-12-04T08:53:24.873Z,56.83
2022-12-04T08:55:53.376Z,52.28
2022-12-04T08:58:21.396Z,46.88
2022-12-04T09:00:50.775Z,50.17
2022-12-04T09:03:21.707Z,46.13
2022-12-04T09:05:51.507Z,45.40
2022-12-04T09:08:19.468Z,49.17
2022-12-04T09:10:47.412Z,43.40
2022-12-04T09:13:15.305Z,52.50
2022-12-04T09:15:43.329Z,47.40
2022-12-04T09:18:12.648Z,48.75
2022-12-04T09:20:40.566Z,48.17
2022-12-04T09:23:08.771Z,45.65
2022-12-04T09:25:37.496Z,49.45
2022-12-04T09:28:05.685Z,50.67
2022-12-04T09:30:33.539Z,48.75
2022-12-04T09:33:01.460Z,39.63
2022-12-04T09:35:31.021Z,47.42
2022-12-04T09:37:59.297Z,46.90
2022-12-04T09:40:36.909Z,51.60
2022-12-04T09:43:20.853Z,50.28
2022-12-04T09:45:55.225Z,46.50
2022-12-04T09:48:34.117Z,51.08
2022-12-04T09:51:04.845Z,48.03
2022-12-04T09:53:41.421Z,53.78
2022-12-04T09:56:12.868Z,44.58
2022-12-04T09:58:43.951Z,50.30
2022-12-04T10:01:21.064Z,46.10
2022-12-04T10:03:49.198Z,47.03
2022-12-04T10:06:21.296Z,44.70
2022-12-04T10:08:52.776Z,48.83
2022-12-04T10:11:32.334Z,46.42
2022-12-04T10:14:10.986Z,46.17
2022-12-04T10:17:03.542Z,40.67
2022-12-04T10:19:36.577Z,50.30
2022-12-04T10:24:43.284Z,40.58
2022-12-04T10:27:19.826Z,44.25
2022-12-04T10:29:50.522Z,45.50
2022-12-04T10:32:21.403Z,46.75
2022-12-04T10:34:51.993Z,47.13
2022-12-04T10:37:21.393Z,48.25
2022-12-04T10:39:53.459Z,38.97
2022-12-04T10:42:37.849Z,34.17
2022-12-04T10:45:07.236Z,49.10
2022-12-04T10:47:35.947Z,48.50
2022-12-04T10:50:13.223Z,45.20
2022-12-04T10:52:42.517Z,45.38
2022-12-04T10:55:10.988Z,41.10
2022-12-04T10:57:40.784Z,44.55
2022-12-04T11:00:28.153Z,40.97
2022-12-04T11:02:57.714Z,44.13
2022-12-04T11:05:29.083Z,46.25
2022-12-04T11:08:00.285Z,31.35
2022-12-04T11:10:33.849Z,36.25
2022-12-04T11:13:03.220Z,47.67
2022-12-04T11:15:31.511Z,34.50
2022-12-04T11:18:08.997Z,38.25
2022-12-04T11:20:37.047Z,27.67
2022-12-04T11:23:06.483Z,43.83
2022-12-04T11:25:37.984Z,38.00
2022-12-04T11:28:06.279Z,38.88
2022-12-04T11:30:36.508Z,30.95
2022-12-04T11:33:06.813Z,36.63
2022-12-04T11:35:35.172Z,36.85
2022-12-04T11:38:08.915Z,34.92
2022-12-04T11:40:37.371Z,35.95
2022-12-04T11:43:07.113Z,38.30
2022-12-04T11:45:35.276Z,33.75
2022-12-04T11:48:04.945Z,32.00
2022-12-04T11:50:39.631Z,28.45
2022-12-04T11:53:17.183Z,33.97
2022-12-04T11:55:54.176Z,35.80
2022-12-04T11:58:33.124Z,34.58
2022-12-04T12:01:13.932Z,32.63
2022-12-04T12:03:45.468Z,33.58
2022-12-04T12:06:21.228Z,32.38
2022-12-04T12:09:03.014Z,30.70
2022-12-04T12:11:34.221Z,31.13
2022-12-04T12:14:08.571Z,29.60
2022-12-04T12:16:49.942Z,28.45
2022-12-04T12:19:37.946Z,27.95
2022-12-04T12:22:12.395Z,33.92
2022-12-04T12:24:49.909Z,32.78
2022-12-04T12:27:30.850Z,28.75
2022-12-04T12:30:04.410Z,28.00
2022-12-04T12:32:52.252Z,34.30
2022-12-04T12:35:23.362Z,31.90
2022-12-04T12:37:53.921Z,30.88
2022-12-04T12:40:29.771Z,32.25
2022-12-04T12:43:01.270Z,34.78
2022-12-04T12:45:36.873Z,27.45
2022-12-04T12:48:09.302Z,31.13
2022-12-04T12:50:44.145Z,27.27
2022-12-04T12:53:16.527Z,27.60
2022-12-04T12:55:47.242Z,30.80
2022-12-04T12:58:19.527Z,24.80
2022-12-04T13:00:52.397Z,27.23
2022-12-04T13:03:27.388Z,31.55
2022-12-04T13:05:58.341Z,24.88
2022-12-04T13:08:29.601Z,31.92
2022-12-04T13:11:04.178Z,35.08
2022-12-04T13:13:34.454Z,24.80
2022-12-04T13:16:07.835Z,31.30
2022-12-04T13:18:40.273Z,28.52
2022-12-04T13:21:09.152Z,21.98
2022-12-04T13:23:50.205Z,27.05
2022-12-04T13:26:28.146Z,16.48
2022-12-04T13:29:01.544Z,26.35
2022-12-04T13:31:34.356Z,24.60
2022-12-04T13:34:21.878Z,23.35
2022-12-04T13:36:59.693Z,24.35
2022-12-04T13:39:51.338Z,24.92
2022-12-04T13:42:24.924Z,19.80
2022-12-04T13:44:55.409Z,28.77
2022-12-04T13:47:33.243Z,33.88
2022-12-04T13:50:10.932Z,33.75
2022-12-04T13:52:40.840Z,29.33
2022-12-04T13:55:25.192Z,27.17
2022-12-04T13:58:00.074Z,24.17
2022-12-04T14:00:31.758Z,33.80
2022-12-04T14:03:02.514Z,31.30
2022-12-04T14:05:33.133Z,28.33
2022-12-04T14:08:07.909Z,27.17
2022-12-04T14:10:38.265Z,31.42
2022-12-04T14:13:16.474Z,22.80
2022-12-04T14:15:44.732Z,28.77
2022-12-04T14:18:20.632Z,23.55
2022-12-04T14:21:01.023Z,22.27
2022-12-04T14:23:35.440Z,22.48
2022-12-04T14:26:05.229Z,26.65
2022-12-04T14:28:44.438Z,36.67
2022-12-04T14:31:27.322Z,27.80
2022-12-04T14:33:58.405Z,38.33
2022-12-04T14:36:28.180Z,33.72
2022-12-04T14:39:13.016Z,33.38
2022-12-04T14:41:40.960Z,27.65
2022-12-04T14:44:23.149Z,41.85
2022-12-04T14:46:52.678Z,33.47
2022-12-04T14:49:31.389Z,41.40
2022-12-04T14:52:05.481Z,32.05
2022-12-04T14:54:38.586Z,39.63
2022-12-04T14:57:18.968Z,41.00
2022-12-04T14:59:49.570Z,38.95
2022-12-04T15:02:19.733Z,41.30
2022-12-04T15:04:48.774Z,39.00
2022-12-04T15:07:21.114Z,46.78
2022-12-04T15:10:10.304Z,31.80
2022-12-04T15:12:44.028Z,37.72
2022-12-04T15:15:21.903Z,30.30
2022-12-04T15:18:00.647Z,38.00
2022-12-04T15:20:33.376Z,37.20
2022-12-04T15:23:05.417Z,33.17
2022-12-04T15:25:37.438Z,36.65
2022-12-04T15:28:09.838Z,34.00
2022-12-04T15:30:40.990Z,34.13
2022-12-04T15:33:19.287Z,39.60
2022-12-04T15:35:52.410Z,40.80
2022-12-04T15:38:20.423Z,43.78
2022-12-04T15:40:53.567Z,45.78
2022-12-04T15:43:27.322Z,51.45
2022-12-04T15:45:56.743Z,46.40
2022-12-04T15:48:29.776Z,44.55
2022-12-04T15:53:32.858Z,29.10
2022-12-04T15:56:03.253Z,35.90
2022-12-04T15:58:32.571Z,38.58
2022-12-04T16:01:03.311Z,42.95
2022-12-04T16:03:32.908Z,41.50
2022-12-04T16:06:09.498Z,45.90
2022-12-04T16:08:39.459Z,38.53
2022-12-04T16:11:08.745Z,43.50
2022-12-04T16:13:38.462Z,43.47
2022-12-04T16:16:11.413Z,36.38
2022-12-04T16:21:07.641Z,46.05
2022-12-04T16:23:35.460Z,49.47
2022-12-04T16:26:03.323Z,44.88
2022-12-04T16:28:31.139Z,45.38
2022-12-04T16:30:59.047Z,41.22
2022-12-04T16:33:28.353Z,40.33
2022-12-04T16:35:56.492Z,44.13
2022-12-04T16:38:24.353Z,46.80
2022-12-04T16:40:52.173Z,39.10
2022-12-04T16:43:20.087Z,46.65
2022-12-04T16:45:49.382Z,58.65
2022-12-04T16:48:17.234Z,48.53
2022-12-04T16:50:47.068Z,50.80
2022-12-04T16:53:17.626Z,49.92
2022-12-04T16:55:46.736Z,53.63
2022-12-04T16:58:15.345Z,54.40
2022-12-04T17:00:44.405Z,49.90
2022-12-04T17:03:18.434Z,39.42
2022-12-04T17:05:47.698Z,52.28
2022-12-04T17:08:15.581Z,40.25
2022-12-04T17:10:43.443Z,48.05
2022-12-04T17:13:11.559Z,55.03
2022-12-04T17:15:39.444Z,54.75
2022-12-04T17:18:11.944Z,49.80
2022-12-04T17:20:41.713Z,45.92
2022-12-04T17:23:12.269Z,48.83
2022-12-04T17:25:40.154Z,41.38
2022-12-04T17:28:08.157Z,49.25
2022-12-04T17:30:36.652Z,50.08
2022-12-04T17:33:05.509Z,37.58
2022-12-04T17:35:33.397Z,46.03
2022-12-04T17:38:05.926Z,38.53
2022-12-04T17:40:35.556Z,43.05
2022-12-04T17:43:03.462Z,47.35
2022-12-04T17:45:31.826Z,43.25
2022-12-04T17:48:00.461Z,40.70
2022-12-04T17:50:28.346Z,40.70
2022-12-04T17:52:56.842Z,43.75
2022-12-04T17:55:24.754Z,30.17
2022-12-04T17:57:53.965Z,39.38
2022-12-04T18:00:21.887Z,33.95
2022-12-04T18:02:53.120Z,34.17
2022-12-04T18:05:21.694Z,32.70
2022-12-04T18:07:49.791Z,39.58
2022-12-04T18:10:18.196Z,36.53
2022-12-04T18:12:46.096Z,39.50
2022-12-04T18:15:15.321Z,37.38
2022-12-04T18:17:43.471Z,29.55
2022-12-04T18:20:11.764Z,31.27
2022-12-04T18:22:39.771Z,37.88
2022-12-04T18:25:09.016Z,35.00
2022-12-04T18:27:41.702Z,36.20
2022-12-04T18:30:12.129Z,31.40
2022-12-04T18:32:41.445Z,32.97
2022-12-04T18:35:11.388Z,32.20
2022-12-04T18:37:40.207Z,29.98
2022-12-04T18:40:09.506Z,32.75
2022-12-04T18:42:38.151Z,30.08
2022-12-04T18:45:07.042Z,32.38
2022-12-04T18:47:36.470Z,35.90
2022-12-04T18:50:09.054Z,33.22
2022-12-04T18:52:38.369Z,32.58
2022-12-04T18:55:06.498Z,30.67
2022-12-04T18:57:34.337Z,31.90
2022-12-04T19:00:02.369Z,29.70
2022-12-04T19:02:30.471Z,29.10
2022-12-04T19:04:58.369Z,23.38
2022-12-04T19:07:27.551Z,29.23
2022-12-04T19:10:10.901Z,31.00
2022-12-04T19:12:39.177Z,32.88
2022-12-04T19:15:08.080Z,27.85
2022-12-04T19:17:35.958Z,30.27
2022-12-04T19:20:03.853Z,23.35
2022-12-04T19:22:33.060Z,35.97
2022-12-04T19:25:01.173Z,30.58
2022-12-04T19:27:28.987Z,32.35
2022-12-04T19:29:57.093Z,28.02
2022-12-04T19:32:25.397Z,28.35
2022-12-04T19:34:53.320Z,28.45
2022-12-04T19:37:21.223Z,29.55
2022-12-04T19:39:50.445Z,27.73
2022-12-04T19:42:18.302Z,29.65
2022-12-04T19:44:48.719Z,25.98
2022-12-04T19:47:17.177Z,25.88
2022-12-04T19:49:45.037Z,24.52
2022-12-04T19:52:13.003Z,30.67
2022-12-04T19:54:41.074Z,31.58
2022-12-04T19:57:10.372Z,25.70
2022-12-04T19:59:41.844Z,24.77
2022-12-04T20:02:12.945Z,24.98
2022-12-04T20:04:40.862Z,23.52
2022-12-04T20:07:08.681Z,23.52
2022-12-04T20:09:36.602Z,24.88
2022-12-04T20:12:04.957Z,27.00
2022-12-04T20:14:34.250Z,19.60
2022-12-04T20:17:04.067Z,21.73
2022-12-04T20:19:32.274Z,19.45
2022-12-04T20:22:00.097Z,22.85
2022-12-04T20:24:28.625Z,18.90
2022-12-04T20:26:56.529Z,20.63
2022-12-04T20:29:24.327Z,23.50
2022-12-04T20:31:53.734Z,20.35
2022-12-04T20:34:21.605Z,23.92
2022-12-04T20:36:50.015Z,25.20
2022-12-04T20:39:19.516Z,24.80
2022-12-04T20:41:47.909Z,26.92
2022-12-04T20:44:17.635Z,26.63
2022-12-04T20:46:45.857Z,27.70
2022-12-04T20:49:21.674Z,29.85
2022-12-04T20:51:51.488Z,28.00
2022-12-04T20:54:20.705Z,30.25
2022-12-04T20:56:49.406Z,27.10
2022-12-04T20:59:18.577Z,23.48
2022-12-04T21:01:46.767Z,28.23
2022-12-04T21:04:17.784Z,30.00
2022-12-04T21:06:46.645Z,29.67
2022-12-04T21:09:16.409Z,40.80
2022-12-04T21:11:45.821Z,41.10
2022-12-04T21:14:33.131Z,30.55
2022-12-04T21:17:01.747Z,36.10
2022-12-04T21:19:32.114Z,43.50
2022-12-04T21:22:00.273Z,39.10
2022-12-04T21:24:28.739Z,46.45
2022-12-04T21:26:56.953Z,44.50
2022-12-04T21:29:25.183Z,41.50
2022-12-04T21:31:53.067Z,45.83
2022-12-04T21:34:20.985Z,52.63
2022-12-04T21:36:50.279Z,45.40
2022-12-04T21:39:18.241Z,44.05
2022-12-04T21:42:03.933Z,49.50
2022-12-04T21:44:31.915Z,45.92
2022-12-04T21:46:59.781Z,49.58
2022-12-04T21:49:28.015Z,53.20
2022-12-04T21:51:58.678Z,53.67
2022-12-04T21:54:27.359Z,51.63
2022-12-04T21:56:55.562Z,47.70
2022-12-04T21:59:23.724Z,50.38
2022-12-04T22:01:51.968Z,45.17
2022-12-04T22:04:19.994Z,46.13
2022-12-04T22:06:47.946Z,44.00
2022-12-04T22:09:17.635Z,52.40
2022-12-04T22:11:45.935Z,54.35
2022-12-04T22:14:14.539Z,49.90
2022-12-04T22:16:43.368Z,50.40
2022-12-04T22:19:11.852Z,56.22
2022-12-04T22:21:40.511Z,56.35
2022-12-04T22:24:10.357Z,54.75
2022-12-04T22:26:40.106Z,59.35
2022-12-04T22:29:34.031Z,53.55
2022-12-04T22:31:56.033Z,54.80
2022-12-04T22:34:23.976Z,60.60
2022-12-04T22:36:51.910Z,57.13
2022-12-04T22:39:19.757Z,46.55
2022-12-04T22:41:49.132Z,49.03
2022-12-04T22:44:16.999Z,54.83
2022-12-04T22:46:44.817Z,47.38
2022-12-04T22:49:12.785Z,51.33
2022-12-04T22:51:40.660Z,53.90
2022-12-04T22:54:11.616Z,52.60
2022-12-04T22:56:39.562Z,57.58
2022-12-04T22:59:08.766Z,58.75
2022-12-04T23:01:36.691Z,52.13
2022-12-04T23:04:04.774Z,59.90
2022-12-04T23:06:33.964Z,51.53
2022-12-04T23:09:03.384Z,56.70
2022-12-04T23:11:31.315Z,55.40
2022-12-04T23:14:01.021Z,67.28
2022-12-04T23:16:31.344Z,59.13
2022-12-04T23:18:59.983Z,56.90
2022-12-04T23:21:28.505Z,63.60
2022-12-04T23:23:56.868Z,59.42
2022-12-04T23:26:27.882Z,63.65
2022-12-04T23:28:56.315Z,68.38
2022-12-04T23:31:24.273Z,55.85
2022-12-04T23:33:53.554Z,61.22
2022-12-04T23:36:21.855Z,68.28
2022-12-04T23:38:49.931Z,63.63
2022-12-04T23:41:19.577Z,62.92
2022-12-04T23:43:48.503Z,66.75
2022-12-04T23:46:17.888Z,63.17
2022-12-04T23:48:46.355Z,59.25
2022-12-04T23:51:17.020Z,65.70
2022-12-04T23:53:45.707Z,75.43
2022-12-04T23:56:16.608Z,64.78
2022-12-04T23:58:46.091Z,76.45
